Time;durP1;ratioP1;P1;durP2;ratioP2;P2;SDS_P1;SDS_P2;PMS_P1;PMS_P2;Temp;Humidity;BMP_temperature;BMP_pressure;BME280_temperature;BME280_humidity;BME280_pressure;Samples;Min_cycle;Max_cycle;Signal;HPM_P1;HPM_P2
2023/03/02 00:00:36;;;;;;;;;;;;;;;;;;6159051;23;19908;-77
2023/03/02 00:03:01;;;;;;;;;;;;;;;;;;6156919;23;19955;-78
2023/03/02 00:05:27;;;;;;;;;;;;;;;;;;6157634;23;19968;-78
2023/03/02 00:07:53;;;;;;;;;;;;;;;;;;6157739;23;19909;-78
2023/03/02 00:10:18;;;;;;;;;;;;;;;;;;6160474;23;19916;-77
2023/03/02 00:12:44;;;;;;;;;;;;;;;;;;6158663;23;19909;-78
2023/03/02 00:15:09;;;;;;;;;;;;;;;;;;6159440;23;20358;-79
2023/03/02 00:17:36;;;;;;;;;;;;;;;;;;6159180;23;19952;-79
2023/03/02 00:20:10;;;;;;;;;;;;;;;;;;6134148;23;19917;-77
2023/03/02 00:22:36;;;;;;;;;;;;;;;;;;6133520;23;19984;-77
2023/03/02 00:25:01;;;;;;;;;;;;;;;;;;6157819;23;19988;-77
2023/03/02 00:27:28;;;;;;;;;;;;;;;;;;6156743;23;19936;-78
2023/03/02 00:29:54;;;;;;;;;;;;;;;;;;6133064;23;19908;-79
2023/03/02 00:32:20;;;;;;;;;;;;;;;;;;6157401;23;19916;-79
2023/03/02 00:34:45;;;;;;;;;;;;;;;;;;6159995;23;19932;-77
2023/03/02 00:37:11;;;;;;;;;;;;;;;;;;6158786;23;19912;-78
2023/03/02 00:39:36;;;;;;;;;;;;;;;;;;6159531;23;19909;-78
2023/03/02 00:42:02;;;;;;;;;;;;;;;;;;6158216;23;19995;-79
2023/03/02 00:44:27;;;;;;;;;;;;;;;;;;6158531;23;19948;-78
2023/03/02 00:46:53;;;;;;;;;;;;;;;;;;6132933;23;19917;-80
2023/03/02 00:49:18;;;;;;;;;;;;;;;;;;6159736;23;19908;-79
2023/03/02 00:51:44;;;;;;;;;;;;;;;;;;6157974;23;20293;-78
2023/03/02 00:54:09;;;;;;;;;;;;;;;;;;6158112;23;19983;-79
2023/03/02 00:56:35;;;;;;;;;;;;;;;;;;6131865;23;19913;-77
2023/03/02 00:59:02;;;;;;;;;;;;;;;;;;6132187;23;19983;-78
2023/03/02 01:01:27;;;;;;;;;;;;;;;;;;6157374;23;19983;-77
2023/03/02 01:03:53;;;;;;;;;;;;;;;;;;6157321;23;19908;-78
2023/03/02 01:06:18;;;;;;;;;;;;;;;;;;6132511;23;19913;-78
2023/03/02 01:08:44;;;;;;;;;;;;;;;;;;6132946;23;19908;-77
2023/03/02 01:11:09;;;;;;;;;;;;;;;;;;6132645;23;19909;-77
2023/03/02 01:13:35;;;;;;;;;;;;;;;;;;6156248;23;19916;-77
2023/03/02 01:16:00;;;;;;;;;;;;;;;;;;6131634;23;19919;-78
2023/03/02 01:18:26;;;;;;;;;;;;;;;;;;6158560;23;19984;-78
2023/03/02 01:20:51;;;;;;;;;;;;;;;;;;6156476;23;19913;-77
2023/03/02 01:23:17;;;;;;;;;;;;;;;;;;6156670;23;19908;-76
2023/03/02 01:25:42;;;;;;;;;;;;;;;;;;6156775;23;19935;-78
2023/03/02 01:28:08;;;;;;;;;;;;;;;;;;6157799;23;19916;-79
2023/03/02 01:30:33;;;;;;;;;;;;;;;;;;6155985;23;19935;-79
2023/03/02 01:32:59;;;;;;;;;;;;;;;;;;6158414;23;19908;-79
2023/03/02 01:35:25;;;;;;;;;;;;;;;;;;6132180;23;19909;-77
2023/03/02 01:37:50;;;;;;;;;;;;;;;;;;6132456;23;19908;-79
2023/03/02 01:40:16;;;;;;;;;;;;;;;;;;6132383;23;19913;-77
2023/03/02 01:42:41;;;;;;;;;;;;;;;;;;6108905;23;19908;-78
2023/03/02 01:45:07;;;;;;;;;;;;;;;;;;6158213;23;19975;-76
2023/03/02 01:47:32;;;;;;;;;;;;;;;;;;6134747;23;19920;-77
2023/03/02 01:50:14;;;;;;;;;;;;;;;;;;6157559;23;19912;-78
2023/03/02 01:52:39;;;;;;;;;;;;;;;;;;6133224;23;19909;-77
2023/03/02 01:55:06;;;;;;;;;;;;;;;;;;6135345;23;19916;-77
2023/03/02 01:57:31;;;;;;;;;;;;;;;;;;6135992;23;20358;-79
2023/03/02 01:59:58;;;;;;;;;;;;;;;;;;6134317;23;19935;-79
2023/03/02 02:02:23;;;;;;;;;;;;;;;;;;6133267;23;19909;-79
2023/03/02 02:04:49;;;;;;;;;;;;;;;;;;6133818;23;19960;-79
2023/03/02 02:07:15;;;;;;;;;;;;;;;;;;6158287;23;19913;-77
2023/03/02 02:09:41;;;;;;;;;;;;;;;;;;6106959;23;19908;-79
2023/03/02 02:12:07;;;;;;;;;;;;;;;;;;6157793;23;19909;-78
2023/03/02 02:14:32;;;;;;;;;;;;;;;;;;6131914;23;20330;-79
2023/03/02 02:16:58;;;;;;;;;;;;;;;;;;6158378;23;20250;-77
2023/03/02 02:19:23;;;;;;;;;;;;;;;;;;6156882;23;20386;-78
2023/03/02 02:21:49;;;;;;;;;;;;;;;;;;6156853;23;19916;-78
2023/03/02 02:24:15;;;;;;;;;;;;;;;;;;6107500;23;19904;-80
2023/03/02 02:26:40;;;;;;;;;;;;;;;;;;6131380;23;19940;-77
2023/03/02 02:29:06;;;;;;;;;;;;;;;;;;6131931;23;19932;-77
2023/03/02 02:31:32;;;;;;;;;;;;;;;;;;6155754;23;20327;-78
2023/03/02 02:33:58;;;;;;;;;;;;;;;;;;6131164;23;19983;-78
2023/03/02 02:36:23;;;;;;;;;;;;;;;;;;6156024;23;20418;-77
2023/03/02 02:38:49;;;;;;;;;;;;;;;;;;6155552;23;19958;-78
2023/03/02 02:41:17;;;;;;;;;;;;;;;;;;6107411;23;19956;-77
2023/03/02 02:43:42;;;;;;;;;;;;;;;;;;6155811;23;20286;-78
2023/03/02 02:46:07;;;;;;;;;;;;;;;;;;6130878;23;19912;-78
2023/03/02 02:48:33;;;;;;;;;;;;;;;;;;6130779;23;19916;-78
2023/03/02 02:50:59;;;;;;;;;;;;;;;;;;6155977;23;20220;-77
2023/03/02 02:53:24;;;;;;;;;;;;;;;;;;6156184;23;19966;-79
2023/03/02 02:55:50;;;;;;;;;;;;;;;;;;6157639;23;20343;-79
2023/03/02 02:58:15;;;;;;;;;;;;;;;;;;6156588;23;19909;-78
2023/03/02 03:00:41;;;;;;;;;;;;;;;;;;6156559;23;20302;-79
2023/03/02 03:03:06;;;;;;;;;;;;;;;;;;6155908;23;19908;-78
2023/03/02 03:05:32;;;;;;;;;;;;;;;;;;6131654;23;20236;-79
2023/03/02 03:07:57;;;;;;;;;;;;;;;;;;6157854;23;19932;-79
2023/03/02 03:10:23;;;;;;;;;;;;;;;;;;6131230;23;19909;-77
2023/03/02 03:12:48;;;;;;;;;;;;;;;;;;6157268;23;19955;-79
2023/03/02 03:15:14;;;;;;;;;;;;;;;;;;6157917;23;19987;-78
2023/03/02 03:17:39;;;;;;;;;;;;;;;;;;6158557;23;19909;-76
2023/03/02 03:20:05;;;;;;;;;;;;;;;;;;6133935;23;20382;-76
2023/03/02 03:22:33;;;;;;;;;;;;;;;;;;6158002;23;19916;-77
2023/03/02 03:24:59;;;;;;;;;;;;;;;;;;6158538;23;19934;-79
2023/03/02 03:27:24;;;;;;;;;;;;;;;;;;6158235;23;19912;-79
2023/03/02 03:29:50;;;;;;;;;;;;;;;;;;6133674;23;20382;-79
2023/03/02 03:32:17;;;;;;;;;;;;;;;;;;6109959;23;19987;-78
2023/03/02 03:34:42;;;;;;;;;;;;;;;;;;6157777;23;19915;-78
2023/03/02 03:37:14;;;;;;;;;;;;;;;;;;6158570;23;20327;-78
2023/03/02 03:39:39;;;;;;;;;;;;;;;;;;6157505;23;19932;-77
2023/03/02 03:42:05;;;;;;;;;;;;;;;;;;6158387;23;19916;-79
2023/03/02 03:44:31;;;;;;;;;;;;;;;;;;6157063;23;20427;-78
2023/03/02 03:46:56;;;;;;;;;;;;;;;;;;6133029;23;19912;-77
2023/03/02 03:49:22;;;;;;;;;;;;;;;;;;6131357;23;19963;-79
2023/03/02 03:51:48;;;;;;;;;;;;;;;;;;6107014;23;19963;-76
2023/03/02 03:54:13;;;;;;;;;;;;;;;;;;6155693;23;20293;-78
2023/03/02 03:56:40;;;;;;;;;;;;;;;;;;6158153;23;19932;-78
2023/03/02 03:59:05;;;;;;;;;;;;;;;;;;6157439;23;20242;-77
2023/03/02 04:01:33;;;;;;;;;;;;;;;;;;6132442;23;19915;-78
2023/03/02 04:03:59;;;;;;;;;;;;;;;;;;6130948;23;19909;-78
2023/03/02 04:06:25;;;;;;;;;;;;;;;;;;6157766;23;19958;-79
2023/03/02 04:08:50;;;;;;;;;;;;;;;;;;6158271;23;19988;-77
2023/03/02 04:11:16;;;;;;;;;;;;;;;;;;6134553;23;19915;-78
2023/03/02 04:13:41;;;;;;;;;;;;;;;;;;6158270;23;19961;-78
2023/03/02 04:16:07;;;;;;;;;;;;;;;;;;6159767;23;19916;-79
2023/03/02 04:18:32;;;;;;;;;;;;;;;;;;6135339;23;19915;-76
2023/03/02 04:20:58;;;;;;;;;;;;;;;;;;6160115;23;19952;-78
2023/03/02 04:23:23;;;;;;;;;;;;;;;;;;6159738;23;19953;-78
2023/03/02 04:25:49;;;;;;;;;;;;;;;;;;6159141;23;20319;-78
2023/03/02 04:28:18;;;;;;;;;;;;;;;;;;6166110;23;19908;-78
2023/03/02 04:30:44;;;;;;;;;;;;;;;;;;6167516;23;19916;-78
2023/03/02 04:33:09;;;;;;;;;;;;;;;;;;6167586;23;19908;-78
2023/03/02 04:35:35;;;;;;;;;;;;;;;;;;6166353;23;19916;-78
2023/03/02 04:38:01;;;;;;;;;;;;;;;;;;6140372;23;19915;-77
2023/03/02 04:40:27;;;;;;;;;;;;;;;;;;6164654;23;19909;-77
2023/03/02 04:42:52;;;;;;;;;;;;;;;;;;6164495;23;19909;-77
2023/03/02 04:45:18;;;;;;;;;;;;;;;;;;6137342;23;19915;-77
2023/03/02 04:47:43;;;;;;;;;;;;;;;;;;6136675;23;19909;-79
2023/03/02 04:50:09;;;;;;;;;;;;;;;;;;6165538;23;19977;-77
2023/03/02 04:52:34;;;;;;;;;;;;;;;;;;6165611;23;19983;-78
2023/03/02 04:55:00;;;;;;;;;;;;;;;;;;6143159;23;19916;-77
2023/03/02 04:57:26;;;;;;;;;;;;;;;;;;6167770;23;19960;-79
2023/03/02 04:59:51;;;;;;;;;;;;;;;;;;6142549;23;20357;-77
2023/03/02 05:02:17;;;;;;;;;;;;;;;;;;6162712;23;20365;-79
2023/03/02 05:04:43;;;;;;;;;;;;;;;;;;6134511;23;20495;-78
2023/03/02 05:07:08;;;;;;;;;;;;;;;;;;6162131;23;19919;-78
2023/03/02 05:09:34;;;;;;;;;;;;;;;;;;6112077;23;19956;-78
2023/03/02 05:11:59;;;;;;;;;;;;;;;;;;6160565;23;19940;-79
2023/03/02 05:14:25;;;;;;;;;;;;;;;;;;6162218;23;19931;-77
2023/03/02 05:16:50;;;;;;;;;;;;;;;;;;6162298;23;19905;-78
2023/03/02 05:19:16;;;;;;;;;;;;;;;;;;6137562;23;19912;-78
2023/03/02 05:21:41;;;;;;;;;;;;;;;;;;6136540;23;20356;-78
2023/03/02 05:24:07;;;;;;;;;;;;;;;;;;6113619;23;19908;-77
2023/03/02 05:26:32;;;;;;;;;;;;;;;;;;6138783;23;19912;-79
2023/03/02 05:28:58;;;;;;;;;;;;;;;;;;6165689;23;19908;-78
2023/03/02 05:31:24;;;;;;;;;;;;;;;;;;6162592;23;20485;-78
2023/03/02 05:33:49;;;;;;;;;;;;;;;;;;6162910;23;19909;-76
2023/03/02 05:36:15;;;;;;;;;;;;;;;;;;6137615;23;20318;-78
2023/03/02 05:38:40;;;;;;;;;;;;;;;;;;6162721;23;20334;-79
2023/03/02 05:41:06;;;;;;;;;;;;;;;;;;6161687;23;19968;-77
2023/03/02 05:43:32;;;;;;;;;;;;;;;;;;6136322;23;20236;-78
2023/03/02 05:45:59;;;;;;;;;;;;;;;;;;6112834;23;19913;-78
2023/03/02 05:48:24;;;;;;;;;;;;;;;;;;6135360;23;19983;-79
2023/03/02 05:50:52;;;;;;;;;;;;;;;;;;6135102;23;23513;-78
2023/03/02 05:53:21;;;;;;;;;;;;;;;;;;6134479;23;19929;-75
2023/03/02 05:55:46;;;;;;;;;;;;;;;;;;6185720;23;19913;-75
2023/03/02 05:58:13;;;;;;;;;;;;;;;;;;6163338;23;19909;-74
2023/03/02 06:00:38;;;;;;;;;;;;;;;;;;6187577;23;19916;-74
2023/03/02 06:03:04;;;;;;;;;;;;;;;;;;6162441;23;19955;-75
2023/03/02 06:05:32;;;;;;;;;;;;;;;;;;6162219;23;19916;-76
2023/03/02 06:07:57;;;;;;;;;;;;;;;;;;6137958;23;20140;-75
2023/03/02 06:10:26;;;;;;;;;;;;;;;;;;6137083;23;19963;-74
2023/03/02 06:12:55;;;;;;;;;;;;;;;;;;6136099;23;19944;-75
2023/03/02 06:15:20;;;;;;;;;;;;;;;;;;6109624;23;19908;-76
2023/03/02 06:17:48;;;;;;;;;;;;;;;;;;6110679;23;19991;-75
2023/03/02 06:20:17;;;;;;;;;;;;;;;;;;6135469;23;19987;-75
2023/03/02 06:22:44;;;;;;;;;;;;;;;;;;6134612;23;19943;-74
2023/03/02 06:25:10;;;;;;;;;;;;;;;;;;6133814;23;19915;-75
2023/03/02 06:27:38;;;;;;;;;;;;;;;;;;6135080;23;19912;-74
2023/03/02 06:30:04;;;;;;;;;;;;;;;;;;6159450;23;19915;-77
2023/03/02 06:32:32;;;;;;;;;;;;;;;;;;6135425;23;19908;-76
2023/03/02 06:34:59;;;;;;;;;;;;;;;;;;6135093;23;19916;-77
2023/03/02 06:37:25;;;;;;;;;;;;;;;;;;6134323;23;20258;-74
2023/03/02 06:39:51;;;;;;;;;;;;;;;;;;6158472;23;19916;-80
2023/03/02 06:42:16;;;;;;;;;;;;;;;;;;6134325;23;19908;-75
2023/03/02 06:44:42;;;;;;;;;;;;;;;;;;6160192;23;19908;-76
2023/03/02 06:47:08;;;;;;;;;;;;;;;;;;6133050;23;19913;-75
2023/03/02 06:49:35;;;;;;;;;;;;;;;;;;6132754;23;19935;-74
2023/03/02 06:52:01;;;;;;;;;;;;;;;;;;6107713;23;19955;-74
2023/03/02 06:54:29;;;;;;;;;;;;;;;;;;6132119;23;19987;-74
2023/03/02 06:56:56;;;;;;;;;;;;;;;;;;6132270;23;20291;-74
2023/03/02 06:59:22;;;;;;;;;;;;;;;;;;6132477;23;19909;-79
2023/03/02 07:01:49;;;;;;;;;;;;;;;;;;6159213;23;19909;-75
2023/03/02 07:04:15;;;;;;;;;;;;;;;;;;6132552;23;19931;-78
2023/03/02 07:06:42;;;;;;;;;;;;;;;;;;6158045;23;19963;-75
2023/03/02 07:09:08;;;;;;;;;;;;;;;;;;6133000;23;19909;-77
2023/03/02 07:11:34;;;;;;;;;;;;;;;;;;6157148;23;20010;-75
2023/03/02 07:14:00;;;;;;;;;;;;;;;;;;6132852;23;19908;-75
2023/03/02 07:16:25;;;;;;;;;;;;;;;;;;6158361;23;19940;-76
2023/03/02 07:18:51;;;;;;;;;;;;;;;;;;6135263;23;20356;-75
2023/03/02 07:21:16;;;;;;;;;;;;;;;;;;6159757;23;19909;-76
2023/03/02 07:23:42;;;;;;;;;;;;;;;;;;6158710;23;19909;-76
2023/03/02 07:26:08;;;;;;;;;;;;;;;;;;6158052;23;19967;-78
2023/03/02 07:28:33;;;;;;;;;;;;;;;;;;6134452;23;19916;-78
2023/03/02 07:30:59;;;;;;;;;;;;;;;;;;6158564;23;19915;-78
2023/03/02 07:33:24;;;;;;;;;;;;;;;;;;6160811;23;20169;-76
2023/03/02 07:35:50;;;;;;;;;;;;;;;;;;6158303;23;19909;-76
2023/03/02 07:38:16;;;;;;;;;;;;;;;;;;6160957;23;19913;-76
2023/03/02 07:40:41;;;;;;;;;;;;;;;;;;6159584;23;19912;-76
2023/03/02 07:43:07;;;;;;;;;;;;;;;;;;6158314;23;19912;-78
2023/03/02 07:45:32;;;;;;;;;;;;;;;;;;6156930;23;19915;-78
2023/03/02 07:47:58;;;;;;;;;;;;;;;;;;6156889;23;19909;-78
2023/03/02 07:50:23;;;;;;;;;;;;;;;;;;6156222;23;19916;-76
2023/03/02 07:52:49;;;;;;;;;;;;;;;;;;6155311;23;19908;-78
2023/03/02 07:55:14;;;;;;;;;;;;;;;;;;6156687;23;19917;-77
2023/03/02 07:57:40;;;;;;;;;;;;;;;;;;6157093;23;20219;-79
2023/03/02 08:00:05;;;;;;;;;;;;;;;;;;6157264;23;20254;-77
2023/03/02 08:02:40;;;;;;;;;;;;;;;;;;6133248;23;19909;-77
2023/03/02 08:05:05;;;;;;;;;;;;;;;;;;6154974;23;19920;-76
2023/03/02 08:07:30;;;;;;;;;;;;;;;;;;6157841;23;20254;-77
2023/03/02 08:09:56;;;;;;;;;;;;;;;;;;6133922;23;19909;-78
2023/03/02 08:12:22;;;;;;;;;;;;;;;;;;6158535;23;19944;-78
2023/03/02 08:14:48;;;;;;;;;;;;;;;;;;6160376;23;19916;-76
2023/03/02 08:17:13;;;;;;;;;;;;;;;;;;6160745;23;20336;-76
2023/03/02 08:19:39;;;;;;;;;;;;;;;;;;6160612;23;19908;-77
2023/03/02 08:22:05;;;;;;;;;;;;;;;;;;6161172;23;19953;-78
2023/03/02 08:24:30;;;;;;;;;;;;;;;;;;6161641;23;20156;-80
2023/03/02 08:26:56;;;;;;;;;;;;;;;;;;6160863;23;19913;-79
2023/03/02 08:29:25;;;;;;;;;;;;;;;;;;6113430;23;20178;-89
2023/03/02 08:31:51;;;;;;;;;;;;;;;;;;6118466;23;19996;-90
2023/03/02 08:34:17;;;;;;;;;;;;;;;;;;6121862;23;19909;-90
2023/03/02 08:36:43;;;;;;;;;;;;;;;;;;6146532;23;19936;-89
2023/03/02 08:39:09;;;;;;;;;;;;;;;;;;6171500;23;19908;-92
2023/03/02 08:41:34;;;;;;;;;;;;;;;;;;6148636;23;19908;-89
2023/03/02 08:44:00;;;;;;;;;;;;;;;;;;6145902;23;19908;-91
2023/03/02 08:46:26;;;;;;;;;;;;;;;;;;6147254;23;20262;-90
2023/03/02 08:48:52;;;;;;;;;;;;;;;;;;6149755;23;19897;-90
2023/03/02 08:51:18;;;;;;;;;;;;;;;;;;6119805;23;20401;-78
2023/03/02 08:53:43;;;;;;;;;;;;;;;;;;6160376;23;19916;-80
2023/03/02 08:56:08;;;;;;;;;;;;;;;;;;6135268;23;20315;-80
2023/03/02 08:58:34;;;;;;;;;;;;;;;;;;6135178;23;20246;-78
2023/03/02 09:01:00;;;;;;;;;;;;;;;;;;6132455;23;19955;-79
2023/03/02 09:03:25;;;;;;;;;;;;;;;;;;6156413;23;19913;-79
2023/03/02 09:05:51;;;;;;;;;;;;;;;;;;6130821;23;20286;-78
2023/03/02 09:08:17;;;;;;;;;;;;;;;;;;6130997;23;19908;-78
2023/03/02 09:10:42;;;;;;;;;;;;;;;;;;6155342;23;20296;-80
2023/03/02 09:13:08;;;;;;;;;;;;;;;;;;6155109;23;19916;-81
2023/03/02 09:15:33;;;;;;;;;;;;;;;;;;6154062;23;19908;-76
2023/03/02 09:17:59;;;;;;;;;;;;;;;;;;6156362;23;20254;-79
2023/03/02 09:20:25;;;;;;;;;;;;;;;;;;6130317;23;19964;-77
2023/03/02 09:22:51;;;;;;;;;;;;;;;;;;6155958;23;20358;-77
2023/03/02 09:25:17;;;;;;;;;;;;;;;;;;6155637;23;20282;-78
2023/03/02 09:27:42;;;;;;;;;;;;;;;;;;6155593;23;19919;-77
2023/03/02 09:30:08;;;;;;;;;;;;;;;;;;6154950;23;19909;-78
2023/03/02 09:32:34;;;;;;;;;;;;;;;;;;6156216;23;20331;-78
2023/03/02 09:34:59;;;;;;;;;;;;;;;;;;6154321;23;20282;-78
2023/03/02 09:37:25;;;;;;;;;;;;;;;;;;6106065;23;20011;-83
2023/03/02 09:39:50;;;;;;;;;;;;;;;;;;6154191;23;19909;-80
2023/03/02 09:42:16;;;;;;;;;;;;;;;;;;6154104;23;20343;-81
2023/03/02 09:44:42;;;;;;;;;;;;;;;;;;6129785;23;19919;-78
2023/03/02 09:47:08;;;;;;;;;;;;;;;;;;6129748;23;20366;-78
2023/03/02 09:49:33;;;;;;;;;;;;;;;;;;6154550;23;19940;-80
2023/03/02 09:51:59;;;;;;;;;;;;;;;;;;6154414;23;19971;-78
2023/03/02 09:54:24;;;;;;;;;;;;;;;;;;6105000;23;19924;-81
2023/03/02 09:56:50;;;;;;;;;;;;;;;;;;6155854;23;19916;-79
2023/03/02 09:59:16;;;;;;;;;;;;;;;;;;6129817;23;19919;-81
2023/03/02 10:01:41;;;;;;;;;;;;;;;;;;6155732;23;20330;-78
2023/03/02 10:04:07;;;;;;;;;;;;;;;;;;6156336;23;20250;-81
2023/03/02 10:06:35;;;;;;;;;;;;;;;;;;6105390;23;19983;-79
2023/03/02 10:09:01;;;;;;;;;;;;;;;;;;6154080;23;19963;-80
2023/03/02 10:11:26;;;;;;;;;;;;;;;;;;6155481;23;20246;-83
2023/03/02 10:13:52;;;;;;;;;;;;;;;;;;6155205;23;19914;-79
2023/03/02 10:16:18;;;;;;;;;;;;;;;;;;6153534;23;20247;-80
2023/03/02 10:18:43;;;;;;;;;;;;;;;;;;6129282;23;20294;-80
2023/03/02 10:21:09;;;;;;;;;;;;;;;;;;6153867;23;20294;-80
2023/03/02 10:23:34;;;;;;;;;;;;;;;;;;6155202;23;20258;-77
2023/03/02 10:26:01;;;;;;;;;;;;;;;;;;6153436;23;20290;-78
2023/03/02 10:28:26;;;;;;;;;;;;;;;;;;6153329;23;19915;-80
2023/03/02 10:30:52;;;;;;;;;;;;;;;;;;6153788;23;19916;-77
2023/03/02 10:33:17;;;;;;;;;;;;;;;;;;6104455;23;19940;-79
2023/03/02 10:35:42;;;;;;;;;;;;;;;;;;6153286;23;19909;-77
2023/03/02 10:38:08;;;;;;;;;;;;;;;;;;6128892;23;19908;-80
2023/03/02 10:40:36;;;;;;;;;;;;;;;;;;6153358;23;19919;-80
2023/03/02 10:43:05;;;;;;;;;;;;;;;;;;6153283;23;19944;-80
2023/03/02 10:45:30;;;;;;;;;;;;;;;;;;6154702;23;19936;-78
2023/03/02 10:47:56;;;;;;;;;;;;;;;;;;6153148;23;19939;-81
2023/03/02 10:50:22;;;;;;;;;;;;;;;;;;6153354;23;19915;-78
2023/03/02 10:52:47;;;;;;;;;;;;;;;;;;6152827;23;19944;-79
2023/03/02 10:55:12;;;;;;;;;;;;;;;;;;6128615;23;20269;-77
2023/03/02 10:57:38;;;;;;;;;;;;;;;;;;6153194;23;19919;-79
2023/03/02 11:00:04;;;;;;;;;;;;;;;;;;6153103;23;20232;-79
2023/03/02 11:02:29;;;;;;;;;;;;;;;;;;6128545;23;20251;-79
2023/03/02 11:04:55;;;;;;;;;;;;;;;;;;6152827;23;20247;-78
2023/03/02 11:07:21;;;;;;;;;;;;;;;;;;6128293;23;19965;-78
2023/03/02 11:09:46;;;;;;;;;;;;;;;;;;6154517;23;19912;-79
2023/03/02 11:12:12;;;;;;;;;;;;;;;;;;6128430;23;20223;-80
2023/03/02 11:14:38;;;;;;;;;;;;;;;;;;6152912;23;20330;-78
2023/03/02 11:17:03;;;;;;;;;;;;;;;;;;6104117;23;19909;-77
2023/03/02 11:19:29;;;;;;;;;;;;;;;;;;6128191;23;19909;-77
2023/03/02 11:21:54;;;;;;;;;;;;;;;;;;6152998;23;20311;-78
2023/03/02 11:24:20;;;;;;;;;;;;;;;;;;6152956;23;20235;-78
2023/03/02 11:26:46;;;;;;;;;;;;;;;;;;6152870;23;20235;-77
2023/03/02 11:29:11;;;;;;;;;;;;;;;;;;6128487;23;19932;-77
2023/03/02 11:31:38;;;;;;;;;;;;;;;;;;6155079;23;20223;-78
2023/03/02 11:34:03;;;;;;;;;;;;;;;;;;6129288;23;19908;-77
2023/03/02 11:36:29;;;;;;;;;;;;;;;;;;6155373;23;20246;-77
2023/03/02 11:38:54;;;;;;;;;;;;;;;;;;6106971;23;20286;-78
2023/03/02 11:41:23;;;;;;;;;;;;;;;;;;6154605;23;19909;-77
2023/03/02 11:43:49;;;;;;;;;;;;;;;;;;6156660;23;19909;-79
2023/03/02 11:46:14;;;;;;;;;;;;;;;;;;6163327;23;19983;-77
2023/03/02 11:48:40;;;;;;;;;;;;;;;;;;6167415;23;20247;-78
2023/03/02 11:51:05;;;;;;;;;;;;;;;;;;6164123;23;19951;-76
2023/03/02 11:53:31;;;;;;;;;;;;;;;;;;6109539;23;19908;-78
2023/03/02 11:55:56;;;;;;;;;;;;;;;;;;6177185;23;19941;-79
2023/03/02 11:58:21;;;;;;;;;;;;;;;;;;6154225;23;19971;-78
2023/03/02 12:00:47;;;;;;;;;;;;;;;;;;6153017;23;19916;-78
2023/03/02 12:03:12;;;;;;;;;;;;;;;;;;6177710;23;19955;-79
2023/03/02 12:05:38;;;;;;;;;;;;;;;;;;6154556;23;19912;-78
2023/03/02 12:08:04;;;;;;;;;;;;;;;;;;6156908;23;19908;-78
2023/03/02 12:10:29;;;;;;;;;;;;;;;;;;6156557;23;19912;-78
2023/03/02 12:12:54;;;;;;;;;;;;;;;;;;6156881;23;19952;-78
2023/03/02 12:15:20;;;;;;;;;;;;;;;;;;6154667;23;19936;-78
2023/03/02 12:17:45;;;;;;;;;;;;;;;;;;6156619;23;20339;-78
2023/03/02 12:20:11;;;;;;;;;;;;;;;;;;6156285;23;19913;-78
2023/03/02 12:22:36;;;;;;;;;;;;;;;;;;6156566;23;19909;-78
2023/03/02 12:25:02;;;;;;;;;;;;;;;;;;6156187;23;19912;-77
2023/03/02 12:27:28;;;;;;;;;;;;;;;;;;6156054;23;19920;-78
2023/03/02 12:29:53;;;;;;;;;;;;;;;;;;6156891;23;19909;-79
2023/03/02 12:32:18;;;;;;;;;;;;;;;;;;6155147;23;19909;-79
2023/03/02 12:34:44;;;;;;;;;;;;;;;;;;6156230;23;19916;-78
2023/03/02 12:37:09;;;;;;;;;;;;;;;;;;6154419;23;19920;-78
2023/03/02 12:39:35;;;;;;;;;;;;;;;;;;6156096;23;19916;-78
2023/03/02 12:42:00;;;;;;;;;;;;;;;;;;6155977;23;20003;-78
2023/03/02 12:44:26;;;;;;;;;;;;;;;;;;6154776;23;19991;-78
2023/03/02 12:46:52;;;;;;;;;;;;;;;;;;6154011;23;19913;-78
2023/03/02 12:49:17;;;;;;;;;;;;;;;;;;6129882;23;19915;-78
2023/03/02 12:51:43;;;;;;;;;;;;;;;;;;6154402;23;19908;-78
2023/03/02 12:54:08;;;;;;;;;;;;;;;;;;6155914;23;20298;-78
2023/03/02 12:56:33;;;;;;;;;;;;;;;;;;6154157;23;19928;-78
2023/03/02 12:58:59;;;;;;;;;;;;;;;;;;6156082;23;19915;-78
2023/03/02 13:01:24;;;;;;;;;;;;;;;;;;6156863;23;20258;-78
2023/03/02 13:03:50;;;;;;;;;;;;;;;;;;6154642;23;20331;-77
2023/03/02 13:06:16;;;;;;;;;;;;;;;;;;6154425;23;19913;-79
2023/03/02 13:08:41;;;;;;;;;;;;;;;;;;6156220;23;19911;-78
2023/03/02 13:11:07;;;;;;;;;;;;;;;;;;6154510;23;20279;-78
2023/03/02 13:13:32;;;;;;;;;;;;;;;;;;6155956;23;19905;-79
2023/03/02 13:16:00;;;;;;;;;;;;;;;;;;6129143;23;19952;-78
2023/03/02 13:18:26;;;;;;;;;;;;;;;;;;6155620;23;19909;-78
2023/03/02 13:20:51;;;;;;;;;;;;;;;;;;6154139;23;20246;-77
2023/03/02 13:23:16;;;;;;;;;;;;;;;;;;6155519;23;19983;-78
2023/03/02 13:25:42;;;;;;;;;;;;;;;;;;6155559;23;20309;-78
2023/03/02 13:28:08;;;;;;;;;;;;;;;;;;6129419;23;20323;-78
2023/03/02 13:30:34;;;;;;;;;;;;;;;;;;6155834;23;19915;-77
2023/03/02 13:33:00;;;;;;;;;;;;;;;;;;6154194;23;19984;-79
2023/03/02 13:35:25;;;;;;;;;;;;;;;;;;6153751;23;20366;-79
2023/03/02 13:37:51;;;;;;;;;;;;;;;;;;6155551;23;19951;-78
2023/03/02 13:40:16;;;;;;;;;;;;;;;;;;6153853;23;20162;-79
2023/03/02 13:42:42;;;;;;;;;;;;;;;;;;6154010;23;19913;-77
2023/03/02 13:45:07;;;;;;;;;;;;;;;;;;6153952;23;19917;-77
2023/03/02 13:47:32;;;;;;;;;;;;;;;;;;6129745;23;19944;-78
2023/03/02 13:49:58;;;;;;;;;;;;;;;;;;6153706;23;19930;-78
2023/03/02 13:52:23;;;;;;;;;;;;;;;;;;6155784;23;19956;-78
2023/03/02 13:54:49;;;;;;;;;;;;;;;;;;6153904;23;19931;-78
2023/03/02 13:57:14;;;;;;;;;;;;;;;;;;6129131;23;19909;-77
2023/03/02 13:59:40;;;;;;;;;;;;;;;;;;6155365;23;19912;-78
2023/03/02 14:02:06;;;;;;;;;;;;;;;;;;6129229;23;20295;-78
2023/03/02 14:04:31;;;;;;;;;;;;;;;;;;6155006;23;19951;-77
2023/03/02 14:06:57;;;;;;;;;;;;;;;;;;6155304;23;19919;-77
2023/03/02 14:09:22;;;;;;;;;;;;;;;;;;6153696;23;19920;-77
2023/03/02 14:11:48;;;;;;;;;;;;;;;;;;6153550;23;19909;-78
2023/03/02 14:14:13;;;;;;;;;;;;;;;;;;6153526;23;19988;-78
2023/03/02 14:16:38;;;;;;;;;;;;;;;;;;6153204;23;20275;-77
2023/03/02 14:19:04;;;;;;;;;;;;;;;;;;6155011;23;19922;-78
2023/03/02 14:21:29;;;;;;;;;;;;;;;;;;6155010;23;20310;-78
2023/03/02 14:23:57;;;;;;;;;;;;;;;;;;6153582;23;19959;-78
2023/03/02 14:26:22;;;;;;;;;;;;;;;;;;6128854;23;19985;-79
2023/03/02 14:28:48;;;;;;;;;;;;;;;;;;6155018;23;20259;-78
2023/03/02 14:31:13;;;;;;;;;;;;;;;;;;6153394;23;20350;-79
2023/03/02 14:33:39;;;;;;;;;;;;;;;;;;6129548;23;19936;-78
2023/03/02 14:36:05;;;;;;;;;;;;;;;;;;6154806;23;20378;-79
2023/03/02 14:38:30;;;;;;;;;;;;;;;;;;6154613;23;20291;-79
2023/03/02 14:40:56;;;;;;;;;;;;;;;;;;6154526;23;19944;-78
2023/03/02 14:43:22;;;;;;;;;;;;;;;;;;6153906;23;19908;-78
2023/03/02 14:45:47;;;;;;;;;;;;;;;;;;6129486;23;20373;-79
2023/03/02 14:48:13;;;;;;;;;;;;;;;;;;6153862;23;19913;-77
2023/03/02 14:50:38;;;;;;;;;;;;;;;;;;6153528;23;19912;-78
2023/03/02 14:53:04;;;;;;;;;;;;;;;;;;6155324;23;19909;-79
2023/03/02 14:55:29;;;;;;;;;;;;;;;;;;6154469;23;19980;-77
2023/03/02 14:57:54;;;;;;;;;;;;;;;;;;6154656;23;19912;-78
2023/03/02 15:00:20;;;;;;;;;;;;;;;;;;6153182;23;20380;-78
2023/03/02 15:02:45;;;;;;;;;;;;;;;;;;6153151;23;19915;-78
2023/03/02 15:05:11;;;;;;;;;;;;;;;;;;6154666;23;20227;-78
2023/03/02 15:07:37;;;;;;;;;;;;;;;;;;6128461;23;19921;-79
2023/03/02 15:10:03;;;;;;;;;;;;;;;;;;6152855;23;19908;-78
2023/03/02 15:12:30;;;;;;;;;;;;;;;;;;6153178;23;20326;-79
2023/03/02 15:14:56;;;;;;;;;;;;;;;;;;6154785;23;19992;-78
2023/03/02 15:17:21;;;;;;;;;;;;;;;;;;6152995;23;20001;-78
2023/03/02 15:19:47;;;;;;;;;;;;;;;;;;6152803;23;20254;-77
2023/03/02 15:22:12;;;;;;;;;;;;;;;;;;6152859;23;20356;-78
2023/03/02 15:24:38;;;;;;;;;;;;;;;;;;6154321;23;19918;-78
2023/03/02 15:27:03;;;;;;;;;;;;;;;;;;6128272;23;19917;-77
2023/03/02 15:29:35;;;;;;;;;;;;;;;;;;6128173;23;19987;-78
2023/03/02 15:32:12;;;;;;;;;;;;;;;;;;6129719;23;19909;-78
2023/03/02 15:34:50;;;;;;;;;;;;;;;;;;6154292;23;19912;-77
2023/03/02 15:37:16;;;;;;;;;;;;;;;;;;6153042;23;19932;-78
2023/03/02 15:39:41;;;;;;;;;;;;;;;;;;6154330;23;19940;-79
2023/03/02 15:42:06;;;;;;;;;;;;;;;;;;6152753;23;19908;-78
2023/03/02 15:44:32;;;;;;;;;;;;;;;;;;6154589;23;20007;-77
2023/03/02 15:46:57;;;;;;;;;;;;;;;;;;6152419;23;20302;-78
2023/03/02 15:49:26;;;;;;;;;;;;;;;;;;6154804;23;19994;-77
2023/03/02 15:51:51;;;;;;;;;;;;;;;;;;6152561;23;20263;-77
2023/03/02 15:54:17;;;;;;;;;;;;;;;;;;6153488;23;19912;-78
2023/03/02 15:56:44;;;;;;;;;;;;;;;;;;6127804;23;19915;-78
2023/03/02 15:59:09;;;;;;;;;;;;;;;;;;6152774;23;19908;-77
2023/03/02 16:01:34;;;;;;;;;;;;;;;;;;6127592;23;19919;-78
2023/03/02 16:04:00;;;;;;;;;;;;;;;;;;6153845;23;20385;-77
2023/03/02 16:06:26;;;;;;;;;;;;;;;;;;6152849;23;19991;-78
2023/03/02 16:08:52;;;;;;;;;;;;;;;;;;6153067;23;19983;-79
2023/03/02 16:11:21;;;;;;;;;;;;;;;;;;6128335;23;20215;-79
2023/03/02 16:13:47;;;;;;;;;;;;;;;;;;6155771;23;19992;-78
2023/03/02 16:16:12;;;;;;;;;;;;;;;;;;6154355;23;19988;-78
2023/03/02 16:18:38;;;;;;;;;;;;;;;;;;6129685;23;20359;-78
2023/03/02 16:21:03;;;;;;;;;;;;;;;;;;6129539;23;19908;-77
2023/03/02 16:23:29;;;;;;;;;;;;;;;;;;6128151;23;19909;-77
2023/03/02 16:25:54;;;;;;;;;;;;;;;;;;6154626;23;19925;-77
2023/03/02 16:28:20;;;;;;;;;;;;;;;;;;6154833;23;19913;-78
2023/03/02 16:30:45;;;;;;;;;;;;;;;;;;6152952;23;19928;-76
2023/03/02 16:33:11;;;;;;;;;;;;;;;;;;6154416;23;20361;-77
2023/03/02 16:35:37;;;;;;;;;;;;;;;;;;6153935;23;20255;-78